Sainte-Anne-De-Bellevue, Canada
Current Conditions -  °F | °C
As of 2:00 PM on Thursday 27 Nov 2014 (Local Time) from CYUL Reporting Station
Broken Clouds Broken Clouds  
Wind Chill: 23°   Ceiling: 21000
Heat Index: 32°   Visibility: 15mi
Dew Point: 16°   Wind: 12mph
Humidity: 51%   Direction: 240°WSW
Pressure: 30.03"   Gusts: NA
Location:  45.48°N, 73.9°W
Report Text: CYUL 271900Z 24010KT 15SM SCT040 BKN210 M00/M09 A3003 RMK CU4CI3 SLP171
Loading
Personal Weather Stations






























Interactive Weather Map New forecast layout! Learn more

10-Day Weather Forecast

Advertisements
Track Severe Weather on mobile